Current Weather

Bateen

Bateen, United Arab Emirates (OMAD)

Report from: Tuesday, August 16, 2022 7:00 AM UTC
Current time: Tuesday, August 16, 2022 7:46 AM UTC

Nearby weather
Weather history
Weather forecast

Temperature40.0°C (104.0°F)
Heat index43.9°C (111.1°F)
Dew point20.0°C (68.0°F)
Winds 4 kts (2.1 m/s, 4.6 mph) Vrb
Winds variableWinds variable from East-Southeast (120°) to West (260°)
Clouds Sky clear
Altimeter29.50 in.Hg (999 mB)
Relative humidity32 %
Density altitude3,602 ft. (1,098 m)
Remarks Ceiling and visibility OK
Flight conditions Visual Meteorological Conditions
Raw dataOMAD 160700Z 21004KT 120V260 CAVOK 40/20 Q0999 BECMG 32010KT
An error has occurred. This application may no longer respond until reloaded. Reload 🗙